sensor_id;sensor_type;location;lat;lon;timestamp;temperature;humidity
13416;DHT22;6779;50.150;8.680;2022-12-18T00:00:44;-5.50;1.00
13416;DHT22;6779;50.150;8.680;2022-12-18T00:03:12;-5.50;99.90
13416;DHT22;6779;50.150;8.680;2022-12-18T00:05:46;-5.70;99.90
13416;DHT22;6779;50.150;8.680;2022-12-18T00:08:11;-5.80;99.90
13416;DHT22;6779;50.150;8.680;2022-12-18T00:10:37;-5.80;99.90
13416;DHT22;6779;50.150;8.680;2022-12-18T00:13:02;-5.90;99.90
13416;DHT22;6779;50.150;8.680;2022-12-18T00:15:28;-5.90;14.80
13416;DHT22;6779;50.150;8.680;2022-12-18T00:17:53;-5.90;1.00
13416;DHT22;6779;50.150;8.680;2022-12-18T00:20:19;-5.90;99.90
13416;DHT22;6779;50.150;8.680;2022-12-18T00:22:51;-5.80;99.90
13416;DHT22;6779;50.150;8.680;2022-12-18T00:25:17;-5.90;1.00
13416;DHT22;6779;50.150;8.680;2022-12-18T00:27:42;-5.90;99.90
13416;DHT22;6779;50.150;8.680;2022-12-18T00:30:08;-6.00;99.90
13416;DHT22;6779;50.150;8.680;2022-12-18T00:32:34;-5.90;1.00
13416;DHT22;6779;50.150;8.680;2022-12-18T00:34:59;-5.90;99.90
13416;DHT22;6779;50.150;8.680;2022-12-18T00:37:25;-5.90;1.00
13416;DHT22;6779;50.150;8.680;2022-12-18T00:39:50;-6.00;99.90
13416;DHT22;6779;50.150;8.680;2022-12-18T00:42:16;-6.00;1.00
13416;DHT22;6779;50.150;8.680;2022-12-18T00:44:59;-6.20;99.90
13416;DHT22;6779;50.150;8.680;2022-12-18T00:47:25;-6.10;1.00
13416;DHT22;6779;50.150;8.680;2022-12-18T00:49:50;-6.10;26.30
13416;DHT22;6779;50.150;8.680;2022-12-18T00:52:16;-6.20;99.90
13416;DHT22;6779;50.150;8.680;2022-12-18T00:54:41;-6.20;99.90
13416;DHT22;6779;50.150;8.680;2022-12-18T00:57:07;-6.20;99.90
13416;DHT22;6779;50.150;8.680;2022-12-18T00:59:32;-6.20;99.90
13416;DHT22;6779;50.150;8.680;2022-12-18T01:01:58;-6.20;60.90
13416;DHT22;6779;50.150;8.680;2022-12-18T01:04:24;-6.30;99.90
13416;DHT22;6779;50.150;8.680;2022-12-18T01:06:49;-6.20;1.00
13416;DHT22;6779;50.150;8.680;2022-12-18T01:09:15;-6.30;99.90
13416;DHT22;6779;50.150;8.680;2022-12-18T01:11:41;-6.20;99.90
13416;DHT22;6779;50.150;8.680;2022-12-18T01:14:06;-6.20;1.00
13416;DHT22;6779;50.150;8.680;2022-12-18T01:16:32;-6.00;99.90
13416;DHT22;6779;50.150;8.680;2022-12-18T01:18:57;-6.00;1.00
13416;DHT22;6779;50.150;8.680;2022-12-18T01:21:23;-6.00;99.90
13416;DHT22;6779;50.150;8.680;2022-12-18T01:23:54;-6.10;1.00
13416;DHT22;6779;50.150;8.680;2022-12-18T01:26:20;-6.20;27.70
13416;DHT22;6779;50.150;8.680;2022-12-18T01:28:46;-6.10;1.00
13416;DHT22;6779;50.150;8.680;2022-12-18T01:31:21;-6.00;99.90
13416;DHT22;6779;50.150;8.680;2022-12-18T01:33:48;-6.00;1.00
13416;DHT22;6779;50.150;8.680;2022-12-18T01:36:43;-6.10;99.90
13416;DHT22;6779;50.150;8.680;2022-12-18T01:39:14;-6.10;99.90
13416;DHT22;6779;50.150;8.680;2022-12-18T01:41:41;-6.00;99.90
13416;DHT22;6779;50.150;8.680;2022-12-18T01:44:58;-6.10;51.50
13416;DHT22;6779;50.150;8.680;2022-12-18T01:47:46;-6.00;99.90
13416;DHT22;6779;50.150;8.680;2022-12-18T01:52:37;-6.00;99.90
13416;DHT22;6779;50.150;8.680;2022-12-18T01:55:06;-5.90;39.00
13416;DHT22;6779;50.150;8.680;2022-12-18T01:57:32;-6.00;1.00
13416;DHT22;6779;50.150;8.680;2022-12-18T02:00:02;-5.90;99.90
13416;DHT22;6779;50.150;8.680;2022-12-18T02:02:29;-5.90;17.10
13416;DHT22;6779;50.150;8.680;2022-12-18T02:04:55;-5.90;99.90
13416;DHT22;6779;50.150;8.680;2022-12-18T02:10:27;-5.80;99.90
13416;DHT22;6779;50.150;8.680;2022-12-18T02:13:14;-5.80;99.90
13416;DHT22;6779;50.150;8.680;2022-12-18T02:15:55;-5.90;1.00
13416;DHT22;6779;50.150;8.680;2022-12-18T02:18:31;-5.90;99.90
13416;DHT22;6779;50.150;8.680;2022-12-18T02:23:56;-5.90;92.10
13416;DHT22;6779;50.150;8.680;2022-12-18T02:26:42;-6.00;34.10
13416;DHT22;6779;50.150;8.680;2022-12-18T02:29:29;-5.80;99.90
13416;DHT22;6779;50.150;8.680;2022-12-18T02:31:58;-5.80;1.00
13416;DHT22;6779;50.150;8.680;2022-12-18T02:34:28;-5.90;92.10
13416;DHT22;6779;50.150;8.680;2022-12-18T02:36:55;-6.00;99.90
13416;DHT22;6779;50.150;8.680;2022-12-18T02:39:25;-6.00;84.50
13416;DHT22;6779;50.150;8.680;2022-12-18T02:41:51;-6.00;1.00
13416;DHT22;6779;50.150;8.680;2022-12-18T02:44:17;-5.90;99.90
13416;DHT22;6779;50.150;8.680;2022-12-18T02:52:08;-6.10;99.90
13416;DHT22;6779;50.150;8.680;2022-12-18T02:55:03;-6.00;1.00
13416;DHT22;6779;50.150;8.680;2022-12-18T03:00:51;-6.10;99.90
13416;DHT22;6779;50.150;8.680;2022-12-18T03:05:45;-6.10;99.90
13416;DHT22;6779;50.150;8.680;2022-12-18T03:08:24;-6.10;1.00
13416;DHT22;6779;50.150;8.680;2022-12-18T03:11:11;-6.00;99.90
13416;DHT22;6779;50.150;8.680;2022-12-18T03:16:11;-6.10;99.90
13416;DHT22;6779;50.150;8.680;2022-12-18T03:19:16;-6.10;99.90
13416;DHT22;6779;50.150;8.680;2022-12-18T03:21:47;-6.10;99.90
13416;DHT22;6779;50.150;8.680;2022-12-18T03:24:15;-6.20;99.90
13416;DHT22;6779;50.150;8.680;2022-12-18T03:26:45;-6.20;99.90
13416;DHT22;6779;50.150;8.680;2022-12-18T03:32:10;-6.30;99.90
13416;DHT22;6779;50.150;8.680;2022-12-18T03:34:39;-6.20;99.90
13416;DHT22;6779;50.150;8.680;2022-12-18T03:37:06;-6.20;1.60
13416;DHT22;6779;50.150;8.680;2022-12-18T03:39:33;-6.20;99.90
13416;DHT22;6779;50.150;8.680;2022-12-18T03:42:04;-6.20;1.00
13416;DHT22;6779;50.150;8.680;2022-12-18T03:44:54;-6.30;1.00
13416;DHT22;6779;50.150;8.680;2022-12-18T03:47:46;-6.30;77.90
13416;DHT22;6779;50.150;8.680;2022-12-18T03:50:56;-6.40;1.00
13416;DHT22;6779;50.150;8.680;2022-12-18T03:53:42;-6.50;62.30
13416;DHT22;6779;50.150;8.680;2022-12-18T03:56:11;-6.60;99.90
13416;DHT22;6779;50.150;8.680;2022-12-18T03:58:40;-6.50;99.90
13416;DHT22;6779;50.150;8.680;2022-12-18T04:01:07;-6.50;1.00
13416;DHT22;6779;50.150;8.680;2022-12-18T04:03:34;-6.40;99.90
13416;DHT22;6779;50.150;8.680;2022-12-18T04:06:02;-6.50;1.00
13416;DHT22;6779;50.150;8.680;2022-12-18T04:08:28;-6.50;99.90
13416;DHT22;6779;50.150;8.680;2022-12-18T04:10:54;-6.50;99.90
13416;DHT22;6779;50.150;8.680;2022-12-18T04:13:32;-6.50;1.00
13416;DHT22;6779;50.150;8.680;2022-12-18T04:15:59;-6.60;1.00
13416;DHT22;6779;50.150;8.680;2022-12-18T04:18:24;-6.70;99.90
13416;DHT22;6779;50.150;8.680;2022-12-18T04:20:50;-6.60;99.90
13416;DHT22;6779;50.150;8.680;2022-12-18T04:23:15;-6.60;1.00
13416;DHT22;6779;50.150;8.680;2022-12-18T04:25:41;-6.70;1.00
13416;DHT22;6779;50.150;8.680;2022-12-18T04:28:07;-6.60;99.90
13416;DHT22;6779;50.150;8.680;2022-12-18T04:30:33;-6.60;99.90
13416;DHT22;6779;50.150;8.680;2022-12-18T04:32:58;-6.70;99.90
13416;DHT22;6779;50.150;8.680;2022-12-18T04:35:24;-6.70;99.90
13416;DHT22;6779;50.150;8.680;2022-12-18T04:37:49;-6.70;1.00
13416;DHT22;6779;50.150;8.680;2022-12-18T04:40:15;-6.70;99.90
13416;DHT22;6779;50.150;8.680;2022-12-18T04:42:40;-6.70;40.20
13416;DHT22;6779;50.150;8.680;2022-12-18T04:45:07;-6.60;99.90
13416;DHT22;6779;50.150;8.680;2022-12-18T04:47:33;-6.70;99.90
13416;DHT22;6779;50.150;8.680;2022-12-18T04:49:58;-6.80;99.90
13416;DHT22;6779;50.150;8.680;2022-12-18T04:52:24;-6.70;99.90
13416;DHT22;6779;50.150;8.680;2022-12-18T04:54:49;-6.80;1.00
13416;DHT22;6779;50.150;8.680;2022-12-18T04:57:15;-6.80;99.90
13416;DHT22;6779;50.150;8.680;2022-12-18T04:59:40;-6.80;99.90
13416;DHT22;6779;50.150;8.680;2022-12-18T05:02:06;-6.80;99.90
13416;DHT22;6779;50.150;8.680;2022-12-18T05:04:31;-6.80;99.90
13416;DHT22;6779;50.150;8.680;2022-12-18T05:06:57;-6.80;99.90
13416;DHT22;6779;50.150;8.680;2022-12-18T05:09:23;-6.80;1.00
13416;DHT22;6779;50.150;8.680;2022-12-18T05:11:49;-6.80;99.90
13416;DHT22;6779;50.150;8.680;2022-12-18T05:14:14;-6.80;94.30
13416;DHT22;6779;50.150;8.680;2022-12-18T05:16:40;-6.80;99.90
13416;DHT22;6779;50.150;8.680;2022-12-18T05:19:06;-6.80;99.90
13416;DHT22;6779;50.150;8.680;2022-12-18T05:21:31;-7.00;1.00
13416;DHT22;6779;50.150;8.680;2022-12-18T05:23:57;-6.90;99.90
13416;DHT22;6779;50.150;8.680;2022-12-18T05:26:22;-6.90;99.90
13416;DHT22;6779;50.150;8.680;2022-12-18T05:28:48;-6.90;99.90
13416;DHT22;6779;50.150;8.680;2022-12-18T05:31:14;-6.90;99.90
13416;DHT22;6779;50.150;8.680;2022-12-18T05:33:39;-6.90;1.00
13416;DHT22;6779;50.150;8.680;2022-12-18T05:36:07;-6.90;99.90
13416;DHT22;6779;50.150;8.680;2022-12-18T05:38:34;-6.90;1.00
13416;DHT22;6779;50.150;8.680;2022-12-18T05:41:00;-6.90;99.90
13416;DHT22;6779;50.150;8.680;2022-12-18T05:43:27;-7.00;99.90
13416;DHT22;6779;50.150;8.680;2022-12-18T05:45:53;-7.00;57.90
13416;DHT22;6779;50.150;8.680;2022-12-18T05:48:20;-7.00;1.00
13416;DHT22;6779;50.150;8.680;2022-12-18T05:50:47;-7.00;22.90
13416;DHT22;6779;50.150;8.680;2022-12-18T05:53:14;-7.00;99.90
13416;DHT22;6779;50.150;8.680;2022-12-18T05:55:41;-7.00;19.30
13416;DHT22;6779;50.150;8.680;2022-12-18T05:58:08;-7.00;1.00
13416;DHT22;6779;50.150;8.680;2022-12-18T06:00:36;-7.00;99.90
13416;DHT22;6779;50.150;8.680;2022-12-18T06:03:05;-7.00;1.00
13416;DHT22;6779;50.150;8.680;2022-12-18T06:05:35;-6.90;1.00
13416;DHT22;6779;50.150;8.680;2022-12-18T06:08:02;-7.00;99.90
13416;DHT22;6779;50.150;8.680;2022-12-18T06:10:28;-7.00;99.90
13416;DHT22;6779;50.150;8.680;2022-12-18T06:12:53;-6.90;1.00
13416;DHT22;6779;50.150;8.680;2022-12-18T06:15:19;-6.90;1.00
13416;DHT22;6779;50.150;8.680;2022-12-18T06:17:44;-7.00;99.90
13416;DHT22;6779;50.150;8.680;2022-12-18T06:20:10;-6.90;99.90
13416;DHT22;6779;50.150;8.680;2022-12-18T06:22:35;-6.90;99.90
13416;DHT22;6779;50.150;8.680;2022-12-18T06:25:01;-6.90;99.90
13416;DHT22;6779;50.150;8.680;2022-12-18T06:27:26;-6.90;99.90
13416;DHT22;6779;50.150;8.680;2022-12-18T06:29:52;-6.90;24.90
13416;DHT22;6779;50.150;8.680;2022-12-18T06:32:17;-6.90;1.00
13416;DHT22;6779;50.150;8.680;2022-12-18T06:34:43;-6.90;99.90
13416;DHT22;6779;50.150;8.680;2022-12-18T06:37:08;-6.90;99.90
13416;DHT22;6779;50.150;8.680;2022-12-18T06:39:34;-7.00;99.90
13416;DHT22;6779;50.150;8.680;2022-12-18T06:41:59;-7.00;99.90
13416;DHT22;6779;50.150;8.680;2022-12-18T06:44:25;-7.10;99.90
13416;DHT22;6779;50.150;8.680;2022-12-18T06:46:50;-7.00;99.90
13416;DHT22;6779;50.150;8.680;2022-12-18T06:49:16;-7.10;99.90
13416;DHT22;6779;50.150;8.680;2022-12-18T06:51:42;-7.10;99.90
13416;DHT22;6779;50.150;8.680;2022-12-18T06:54:07;-7.10;99.90
13416;DHT22;6779;50.150;8.680;2022-12-18T06:56:33;-7.10;99.90
13416;DHT22;6779;50.150;8.680;2022-12-18T06:58:58;-7.20;99.90
13416;DHT22;6779;50.150;8.680;2022-12-18T07:01:24;-7.20;99.90
13416;DHT22;6779;50.150;8.680;2022-12-18T07:03:54;-7.10;99.90
13416;DHT22;6779;50.150;8.680;2022-12-18T07:06:22;-7.20;99.90
13416;DHT22;6779;50.150;8.680;2022-12-18T07:08:49;-7.10;99.90
13416;DHT22;6779;50.150;8.680;2022-12-18T07:11:15;-7.20;99.90
13416;DHT22;6779;50.150;8.680;2022-12-18T07:13:42;-7.20;97.80
13416;DHT22;6779;50.150;8.680;2022-12-18T07:16:08;-7.10;99.90
13416;DHT22;6779;50.150;8.680;2022-12-18T07:18:34;-7.20;99.90
13416;DHT22;6779;50.150;8.680;2022-12-18T07:21:04;-7.10;99.90
13416;DHT22;6779;50.150;8.680;2022-12-18T07:23:31;-7.20;59.20
13416;DHT22;6779;50.150;8.680;2022-12-18T07:26:07;-7.10;99.90
13416;DHT22;6779;50.150;8.680;2022-12-18T07:28:34;-7.10;16.60
13416;DHT22;6779;50.150;8.680;2022-12-18T07:31:07;-7.10;1.00
13416;DHT22;6779;50.150;8.680;2022-12-18T07:33:34;-7.20;99.90
13416;DHT22;6779;50.150;8.680;2022-12-18T07:36:00;-7.10;99.90
13416;DHT22;6779;50.150;8.680;2022-12-18T07:38:26;-7.10;99.90
13416;DHT22;6779;50.150;8.680;2022-12-18T07:40:52;-7.10;99.90
13416;DHT22;6779;50.150;8.680;2022-12-18T07:43:17;-7.10;1.00
13416;DHT22;6779;50.150;8.680;2022-12-18T07:45:43;-7.20;1.00
13416;DHT22;6779;50.150;8.680;2022-12-18T07:48:09;-7.10;48.90
13416;DHT22;6779;50.150;8.680;2022-12-18T07:50:35;-7.10;99.90
13416;DHT22;6779;50.150;8.680;2022-12-18T07:53:00;-7.10;99.90
13416;DHT22;6779;50.150;8.680;2022-12-18T07:55:29;-7.00;99.90
13416;DHT22;6779;50.150;8.680;2022-12-18T07:57:55;-7.00;12.90
13416;DHT22;6779;50.150;8.680;2022-12-18T08:00:21;-6.90;44.50
13416;DHT22;6779;50.150;8.680;2022-12-18T08:02:47;-6.90;1.00
13416;DHT22;6779;50.150;8.680;2022-12-18T08:05:12;-6.90;1.00
13416;DHT22;6779;50.150;8.680;2022-12-18T08:07:38;-7.00;1.00
13416;DHT22;6779;50.150;8.680;2022-12-18T08:10:05;-6.90;40.20
13416;DHT22;6779;50.150;8.680;2022-12-18T08:12:30;-6.90;1.00
13416;DHT22;6779;50.150;8.680;2022-12-18T08:14:56;-6.90;99.90
13416;DHT22;6779;50.150;8.680;2022-12-18T08:17:21;-6.90;99.90
13416;DHT22;6779;50.150;8.680;2022-12-18T08:19:47;-6.80;99.90
13416;DHT22;6779;50.150;8.680;2022-12-18T08:22:12;-6.70;99.90
13416;DHT22;6779;50.150;8.680;2022-12-18T08:24:38;-6.70;99.90
13416;DHT22;6779;50.150;8.680;2022-12-18T08:27:03;-6.60;1.00
13416;DHT22;6779;50.150;8.680;2022-12-18T08:29:29;-6.50;99.90
13416;DHT22;6779;50.150;8.680;2022-12-18T08:31:55;-6.40;99.90
13416;DHT22;6779;50.150;8.680;2022-12-18T08:34:21;-6.30;1.00
13416;DHT22;6779;50.150;8.680;2022-12-18T08:36:46;-6.20;1.00
13416;DHT22;6779;50.150;8.680;2022-12-18T08:39:12;-6.30;1.00
13416;DHT22;6779;50.150;8.680;2022-12-18T08:41:37;-6.20;1.00
13416;DHT22;6779;50.150;8.680;2022-12-18T08:44:03;-6.10;99.90
13416;DHT22;6779;50.150;8.680;2022-12-18T08:46:47;-6.00;99.90
13416;DHT22;6779;50.150;8.680;2022-12-18T08:49:12;-6.00;99.90
13416;DHT22;6779;50.150;8.680;2022-12-18T08:51:38;-5.90;1.00
13416;DHT22;6779;50.150;8.680;2022-12-18T08:54:05;-5.90;99.90
13416;DHT22;6779;50.150;8.680;2022-12-18T08:56:31;-5.70;37.90
13416;DHT22;6779;50.150;8.680;2022-12-18T08:58:56;-5.70;99.90
13416;DHT22;6779;50.150;8.680;2022-12-18T09:01:22;-5.50;1.00
13416;DHT22;6779;50.150;8.680;2022-12-18T09:03:49;-5.50;1.00
13416;DHT22;6779;50.150;8.680;2022-12-18T09:06:17;-5.30;99.90
13416;DHT22;6779;50.150;8.680;2022-12-18T09:08:44;-5.30;1.00
13416;DHT22;6779;50.150;8.680;2022-12-18T09:11:21;-5.10;1.00
13416;DHT22;6779;50.150;8.680;2022-12-18T09:13:48;-5.00;1.00
13416;DHT22;6779;50.150;8.680;2022-12-18T09:16:15;-4.90;99.90
13416;DHT22;6779;50.150;8.680;2022-12-18T09:18:40;-4.80;1.00
13416;DHT22;6779;50.150;8.680;2022-12-18T09:21:11;-4.80;1.00
13416;DHT22;6779;50.150;8.680;2022-12-18T09:23:37;-4.70;99.90
13416;DHT22;6779;50.150;8.680;2022-12-18T09:26:02;-4.70;99.90
13416;DHT22;6779;50.150;8.680;2022-12-18T09:28:28;-4.70;99.90
13416;DHT22;6779;50.150;8.680;2022-12-18T09:30:54;-4.60;99.90
13416;DHT22;6779;50.150;8.680;2022-12-18T09:33:19;-4.60;99.90
13416;DHT22;6779;50.150;8.680;2022-12-18T09:35:45;-4.50;95.50
13416;DHT22;6779;50.150;8.680;2022-12-18T09:38:13;-4.40;1.00
13416;DHT22;6779;50.150;8.680;2022-12-18T09:40:45;-4.20;1.00
13416;DHT22;6779;50.150;8.680;2022-12-18T09:45:58;-4.00;28.70
13416;DHT22;6779;50.150;8.680;2022-12-18T09:48:51;-4.10;12.90
13416;DHT22;6779;50.150;8.680;2022-12-18T09:51:23;-4.10;1.00
13416;DHT22;6779;50.150;8.680;2022-12-18T09:54:00;-3.90;99.90
13416;DHT22;6779;50.150;8.680;2022-12-18T09:56:28;-3.90;1.00
13416;DHT22;6779;50.150;8.680;2022-12-18T09:58:59;-3.40;99.90
13416;DHT22;6779;50.150;8.680;2022-12-18T10:01:26;-3.50;99.90
13416;DHT22;6779;50.150;8.680;2022-12-18T10:03:53;-3.50;99.90
13416;DHT22;6779;50.150;8.680;2022-12-18T10:06:24;-3.50;99.90
13416;DHT22;6779;50.150;8.680;2022-12-18T10:08:58;-3.40;99.90
13416;DHT22;6779;50.150;8.680;2022-12-18T10:11:47;-3.50;99.90
13416;DHT22;6779;50.150;8.680;2022-12-18T10:17:13;-3.50;91.50
13416;DHT22;6779;50.150;8.680;2022-12-18T10:19:55;-3.50;99.90
13416;DHT22;6779;50.150;8.680;2022-12-18T10:25:26;-3.30;99.90
13416;DHT22;6779;50.150;8.680;2022-12-18T10:27:56;-3.40;92.10
13416;DHT22;6779;50.150;8.680;2022-12-18T10:30:24;-3.30;99.90
13416;DHT22;6779;50.150;8.680;2022-12-18T10:32:50;-3.30;52.80
13416;DHT22;6779;50.150;8.680;2022-12-18T10:35:25;-3.20;98.70
13416;DHT22;6779;50.150;8.680;2022-12-18T10:41:00;-3.40;39.80
13416;DHT22;6779;50.150;8.680;2022-12-18T10:43:36;-3.10;93.70
13416;DHT22;6779;50.150;8.680;2022-12-18T10:48:40;-3.30;58.10
13416;DHT22;6779;50.150;8.680;2022-12-18T10:51:07;-3.10;57.20
13416;DHT22;6779;50.150;8.680;2022-12-18T10:53:34;-3.00;99.90
13416;DHT22;6779;50.150;8.680;2022-12-18T10:56:03;-3.10;88.40
13416;DHT22;6779;50.150;8.680;2022-12-18T10:58:32;-3.20;34.20
13416;DHT22;6779;50.150;8.680;2022-12-18T11:01:13;-3.10;46.00
13416;DHT22;6779;50.150;8.680;2022-12-18T11:03:44;-3.20;39.90
13416;DHT22;6779;50.150;8.680;2022-12-18T11:06:18;-3.20;38.90
13416;DHT22;6779;50.150;8.680;2022-12-18T11:09:17;-3.30;42.20
13416;DHT22;6779;50.150;8.680;2022-12-18T11:11:49;-3.30;31.50
13416;DHT22;6779;50.150;8.680;2022-12-18T11:16:47;-3.20;3.50
13416;DHT22;6779;50.150;8.680;2022-12-18T11:19:20;-3.00;13.10
13416;DHT22;6779;50.150;8.680;2022-12-18T11:21:47;-2.90;1.00
13416;DHT22;6779;50.150;8.680;2022-12-18T11:24:34;-2.90;13.00
13416;DHT22;6779;50.150;8.680;2022-12-18T11:27:05;-2.20;1.00
13416;DHT22;6779;50.150;8.680;2022-12-18T11:29:34;-1.50;1.00
13416;DHT22;6779;50.150;8.680;2022-12-18T11:35:00;-0.90;1.00
13416;DHT22;6779;50.150;8.680;2022-12-18T11:37:28;-0.70;1.00
13416;DHT22;6779;50.150;8.680;2022-12-18T11:39:58;-1.00;1.00
13416;DHT22;6779;50.150;8.680;2022-12-18T11:42:38;-1.10;1.00
13416;DHT22;6779;50.150;8.680;2022-12-18T11:47:43;-0.20;1.00
13416;DHT22;6779;50.150;8.680;2022-12-18T11:50:24;-0.10;1.00
13416;DHT22;6779;50.150;8.680;2022-12-18T11:52:51;-0.50;1.00
13416;DHT22;6779;50.150;8.680;2022-12-18T11:55:31;-1.10;1.00
13416;DHT22;6779;50.150;8.680;2022-12-18T11:58:13;-1.20;1.00
13416;DHT22;6779;50.150;8.680;2022-12-18T12:00:54;-1.50;1.00
13416;DHT22;6779;50.150;8.680;2022-12-18T12:03:32;-2.10;1.00
13416;DHT22;6779;50.150;8.680;2022-12-18T12:06:38;-1.80;1.00
13416;DHT22;6779;50.150;8.680;2022-12-18T12:09:24;-2.10;1.00
13416;DHT22;6779;50.150;8.680;2022-12-18T12:17:24;-2.30;1.00
13416;DHT22;6779;50.150;8.680;2022-12-18T12:25:46;-2.40;30.20
13416;DHT22;6779;50.150;8.680;2022-12-18T12:28:33;-2.30;64.10
13416;DHT22;6779;50.150;8.680;2022-12-18T12:31:17;-2.30;88.10
13416;DHT22;6779;50.150;8.680;2022-12-18T12:39:17;-2.70;72.10
13416;DHT22;6779;50.150;8.680;2022-12-18T12:41:45;-2.70;99.90
13416;DHT22;6779;50.150;8.680;2022-12-18T12:44:34;-2.70;94.10
13416;DHT22;6779;50.150;8.680;2022-12-18T12:47:11;-2.60;99.90
13416;DHT22;6779;50.150;8.680;2022-12-18T12:49:38;-2.60;99.90
13416;DHT22;6779;50.150;8.680;2022-12-18T12:52:10;-2.70;99.90
13416;DHT22;6779;50.150;8.680;2022-12-18T12:54:37;-2.70;99.90
13416;DHT22;6779;50.150;8.680;2022-12-18T12:57:14;-2.80;99.90
13416;DHT22;6779;50.150;8.680;2022-12-18T13:05:26;-2.70;99.90
13416;DHT22;6779;50.150;8.680;2022-12-18T13:08:08;-2.50;99.90
13416;DHT22;6779;50.150;8.680;2022-12-18T13:10:39;-2.70;99.90
13416;DHT22;6779;50.150;8.680;2022-12-18T13:13:15;-2.80;99.90
13416;DHT22;6779;50.150;8.680;2022-12-18T13:15:46;-2.90;99.90
13416;DHT22;6779;50.150;8.680;2022-12-18T13:18:20;-2.80;99.90
13416;DHT22;6779;50.150;8.680;2022-12-18T13:21:32;-3.00;99.90
13416;DHT22;6779;50.150;8.680;2022-12-18T13:23:37;-2.90;99.90
13416;DHT22;6779;50.150;8.680;2022-12-18T13:31:57;-2.70;99.90
13416;DHT22;6779;50.150;8.680;2022-12-18T13:34:21;-2.80;99.90
13416;DHT22;6779;50.150;8.680;2022-12-18T13:36:48;-2.70;99.90
13416;DHT22;6779;50.150;8.680;2022-12-18T13:41:43;-2.70;99.90
13416;DHT22;6779;50.150;8.680;2022-12-18T13:46:59;-2.70;99.90
13416;DHT22;6779;50.150;8.680;2022-12-18T13:49:45;-2.60;99.90
13416;DHT22;6779;50.150;8.680;2022-12-18T13:52:23;-2.70;99.90
13416;DHT22;6779;50.150;8.680;2022-12-18T13:54:55;-2.80;99.90
13416;DHT22;6779;50.150;8.680;2022-12-18T13:57:29;-2.70;99.90
13416;DHT22;6779;50.150;8.680;2022-12-18T13:59:56;-2.60;99.90
13416;DHT22;6779;50.150;8.680;2022-12-18T14:02:24;-2.70;99.90
13416;DHT22;6779;50.150;8.680;2022-12-18T14:04:51;-2.60;99.90
13416;DHT22;6779;50.150;8.680;2022-12-18T14:07:19;-2.50;1.00
13416;DHT22;6779;50.150;8.680;2022-12-18T14:09:49;-2.40;99.90
13416;DHT22;6779;50.150;8.680;2022-12-18T14:15:02;-2.50;99.90
13416;DHT22;6779;50.150;8.680;2022-12-18T14:17:28;-2.50;99.90
13416;DHT22;6779;50.150;8.680;2022-12-18T14:19:53;-2.40;99.90
13416;DHT22;6779;50.150;8.680;2022-12-18T14:22:25;-2.50;1.00
13416;DHT22;6779;50.150;8.680;2022-12-18T14:25:14;-2.60;99.90
13416;DHT22;6779;50.150;8.680;2022-12-18T14:27:52;-2.40;1.00
13416;DHT22;6779;50.150;8.680;2022-12-18T14:33:09;-2.40;1.00
13416;DHT22;6779;50.150;8.680;2022-12-18T14:35:37;-2.50;1.00
13416;DHT22;6779;50.150;8.680;2022-12-18T14:38:18;-2.50;1.00
13416;DHT22;6779;50.150;8.680;2022-12-18T14:40:44;-2.40;1.00
13416;DHT22;6779;50.150;8.680;2022-12-18T14:43:13;-2.50;1.00
13416;DHT22;6779;50.150;8.680;2022-12-18T14:45:43;-2.50;1.00
13416;DHT22;6779;50.150;8.680;2022-12-18T14:48:16;-2.50;1.00
13416;DHT22;6779;50.150;8.680;2022-12-18T14:50:43;-2.50;1.00
13416;DHT22;6779;50.150;8.680;2022-12-18T14:53:26;-2.40;1.00
13416;DHT22;6779;50.150;8.680;2022-12-18T14:55:54;-2.40;1.00
13416;DHT22;6779;50.150;8.680;2022-12-18T14:58:19;-2.40;1.00
13416;DHT22;6779;50.150;8.680;2022-12-18T15:00:45;-2.30;99.90
13416;DHT22;6779;50.150;8.680;2022-12-18T15:03:15;-2.40;26.60
13416;DHT22;6779;50.150;8.680;2022-12-18T15:05:43;-2.40;99.90
13416;DHT22;6779;50.150;8.680;2022-12-18T15:08:38;-2.40;99.90
13416;DHT22;6779;50.150;8.680;2022-12-18T15:11:22;-2.50;99.90
13416;DHT22;6779;50.150;8.680;2022-12-18T15:13:49;-2.50;1.00
13416;DHT22;6779;50.150;8.680;2022-12-18T15:16:14;-2.50;1.00
13416;DHT22;6779;50.150;8.680;2022-12-18T15:18:42;-2.50;1.00
13416;DHT22;6779;50.150;8.680;2022-12-18T15:21:11;-2.50;99.90
13416;DHT22;6779;50.150;8.680;2022-12-18T15:23:48;-2.50;1.00
13416;DHT22;6779;50.150;8.680;2022-12-18T15:26:17;-2.60;1.00
13416;DHT22;6779;50.150;8.680;2022-12-18T15:28:54;-2.60;99.90
13416;DHT22;6779;50.150;8.680;2022-12-18T15:31:34;-2.60;99.90
13416;DHT22;6779;50.150;8.680;2022-12-18T15:34:05;-2.60;99.90
13416;DHT22;6779;50.150;8.680;2022-12-18T15:36:31;-2.60;99.90
13416;DHT22;6779;50.150;8.680;2022-12-18T15:38:57;-2.70;99.90
13416;DHT22;6779;50.150;8.680;2022-12-18T15:41:23;-2.60;99.90
13416;DHT22;6779;50.150;8.680;2022-12-18T15:43:51;-2.70;99.90
13416;DHT22;6779;50.150;8.680;2022-12-18T15:46:22;-2.70;99.90
13416;DHT22;6779;50.150;8.680;2022-12-18T15:48:53;-2.80;99.90
13416;DHT22;6779;50.150;8.680;2022-12-18T15:51:33;-2.80;1.00
13416;DHT22;6779;50.150;8.680;2022-12-18T15:54:01;-2.80;1.00
13416;DHT22;6779;50.150;8.680;2022-12-18T15:56:27;-2.90;1.00
13416;DHT22;6779;50.150;8.680;2022-12-18T15:59:13;-2.90;1.00
13416;DHT22;6779;50.150;8.680;2022-12-18T16:01:40;-2.80;99.90
13416;DHT22;6779;50.150;8.680;2022-12-18T16:04:06;-2.80;25.30
13416;DHT22;6779;50.150;8.680;2022-12-18T16:06:32;-2.90;1.00
13416;DHT22;6779;50.150;8.680;2022-12-18T16:08:57;-2.90;1.00
13416;DHT22;6779;50.150;8.680;2022-12-18T16:11:27;-3.00;9.70
13416;DHT22;6779;50.150;8.680;2022-12-18T16:14:22;-3.00;1.00
13416;DHT22;6779;50.150;8.680;2022-12-18T16:16:53;-2.90;99.90
13416;DHT22;6779;50.150;8.680;2022-12-18T16:19:19;-2.90;1.00
13416;DHT22;6779;50.150;8.680;2022-12-18T16:21:47;-2.90;99.90
13416;DHT22;6779;50.150;8.680;2022-12-18T16:24:20;-3.00;99.90
13416;DHT22;6779;50.150;8.680;2022-12-18T16:26:47;-3.00;1.00
13416;DHT22;6779;50.150;8.680;2022-12-18T16:29:13;-3.10;1.00
13416;DHT22;6779;50.150;8.680;2022-12-18T16:31:38;-3.00;99.90
13416;DHT22;6779;50.150;8.680;2022-12-18T16:36:36;-3.10;1.00
13416;DHT22;6779;50.150;8.680;2022-12-18T16:39:02;-3.10;99.90
13416;DHT22;6779;50.150;8.680;2022-12-18T16:41:27;-3.10;99.90
13416;DHT22;6779;50.150;8.680;2022-12-18T16:43:56;-3.10;99.90
13416;DHT22;6779;50.150;8.680;2022-12-18T16:46:21;-3.10;73.30
13416;DHT22;6779;50.150;8.680;2022-12-18T16:48:47;-3.10;99.90
13416;DHT22;6779;50.150;8.680;2022-12-18T16:51:12;-3.00;79.10
13416;DHT22;6779;50.150;8.680;2022-12-18T16:53:38;-3.00;1.00
13416;DHT22;6779;50.150;8.680;2022-12-18T16:56:03;-3.00;94.70
13416;DHT22;6779;50.150;8.680;2022-12-18T16:58:29;-3.00;99.90
13416;DHT22;6779;50.150;8.680;2022-12-18T17:00:54;-3.00;99.90
13416;DHT22;6779;50.150;8.680;2022-12-18T17:03:20;-3.10;83.90
13416;DHT22;6779;50.150;8.680;2022-12-18T17:05:45;-3.00;1.00
13416;DHT22;6779;50.150;8.680;2022-12-18T17:08:11;-3.10;1.00
13416;DHT22;6779;50.150;8.680;2022-12-18T17:10:36;-3.00;99.90
13416;DHT22;6779;50.150;8.680;2022-12-18T17:13:02;-3.00;1.00
13416;DHT22;6779;50.150;8.680;2022-12-18T17:15:27;-3.00;1.00
13416;DHT22;6779;50.150;8.680;2022-12-18T17:17:53;-2.90;1.00
13416;DHT22;6779;50.150;8.680;2022-12-18T17:20:18;-3.10;1.00
13416;DHT22;6779;50.150;8.680;2022-12-18T17:22:44;-3.10;99.90
13416;DHT22;6779;50.150;8.680;2022-12-18T17:25:09;-3.20;99.90
13416;DHT22;6779;50.150;8.680;2022-12-18T17:27:35;-3.20;99.90
13416;DHT22;6779;50.150;8.680;2022-12-18T17:30:01;-3.20;1.00
13416;DHT22;6779;50.150;8.680;2022-12-18T17:32:27;-3.20;99.90
13416;DHT22;6779;50.150;8.680;2022-12-18T17:34:52;-3.20;1.00